sensor_id;sensor_type;location;lat;lon;timestamp;noise_LAeq;noise_LA_min;noise_LA_max;noise_LA01;noise_LA95
67306;Laerm;57661;51.436;5.978;2024-03-29T00:00:07;30.36;27.62;47.94;;
67306;Laerm;57661;51.436;5.978;2024-03-29T00:00:18;40.66;30.37;45.98;;
67306;Laerm;57661;51.436;5.978;2024-03-29T00:00:28;41.02;35.61;46.32;;
67306;Laerm;57661;51.436;5.978;2024-03-29T00:00:38;32.43;27.69;41.93;;
67306;Laerm;57661;51.436;5.978;2024-03-29T00:00:48;28.50;27.43;29.66;;
67306;Laerm;57661;51.436;5.978;2024-03-29T00:01:00;28.41;27.37;29.23;;
67306;Laerm;57661;51.436;5.978;2024-03-29T00:01:12;28.45;27.51;35.99;;
67306;Laerm;57661;51.436;5.978;2024-03-29T00:01:22;28.39;27.49;29.34;;
67306;Laerm;57661;51.436;5.978;2024-03-29T00:01:32;28.37;27.33;29.37;;
67306;Laerm;57661;51.436;5.978;2024-03-29T00:01:42;28.38;27.45;29.16;;
67306;Laerm;57661;51.436;5.978;2024-03-29T00:01:53;28.37;27.18;29.10;;
67306;Laerm;57661;51.436;5.978;2024-03-29T00:02:04;28.39;27.50;29.26;;
67306;Laerm;57661;51.436;5.978;2024-03-29T00:02:14;28.38;27.35;29.30;;
67306;Laerm;57661;51.436;5.978;2024-03-29T00:02:24;28.37;27.48;29.12;;
67306;Laerm;57661;51.436;5.978;2024-03-29T00:02:34;28.41;27.34;29.42;;
67306;Laerm;57661;51.436;5.978;2024-03-29T00:02:44;28.34;27.44;29.40;;
67306;Laerm;57661;51.436;5.978;2024-03-29T00:02:55;28.36;27.17;29.26;;
67306;Laerm;57661;51.436;5.978;2024-03-29T00:03:05;28.38;27.06;29.32;;
67306;Laerm;57661;51.436;5.978;2024-03-29T00:03:16;28.37;27.06;29.24;;
67306;Laerm;57661;51.436;5.978;2024-03-29T00:03:26;28.40;27.52;29.09;;
67306;Laerm;57661;51.436;5.978;2024-03-29T00:03:36;28.39;27.31;29.26;;
67306;Laerm;57661;51.436;5.978;2024-03-29T00:03:46;28.40;27.45;29.40;;
67306;Laerm;57661;51.436;5.978;2024-03-29T00:03:57;28.38;27.50;29.54;;
67306;Laerm;57661;51.436;5.978;2024-03-29T00:04:07;28.40;27.40;29.37;;
67306;Laerm;57661;51.436;5.978;2024-03-29T00:04:18;28.48;27.17;29.43;;
67306;Laerm;57661;51.436;5.978;2024-03-29T00:04:28;28.38;27.32;29.36;;
67306;Laerm;57661;51.436;5.978;2024-03-29T00:04:38;28.35;27.52;29.26;;
67306;Laerm;57661;51.436;5.978;2024-03-29T00:04:48;28.39;27.21;29.25;;
67306;Laerm;57661;51.436;5.978;2024-03-29T00:04:59;28.38;27.44;29.40;;
67306;Laerm;57661;51.436;5.978;2024-03-29T00:05:09;28.41;27.58;29.40;;
67306;Laerm;57661;51.436;5.978;2024-03-29T00:05:19;28.37;27.60;29.23;;
67306;Laerm;57661;51.436;5.978;2024-03-29T00:05:29;28.38;27.47;29.28;;
67306;Laerm;57661;51.436;5.978;2024-03-29T00:05:42;28.40;27.44;29.55;;
67306;Laerm;57661;51.436;5.978;2024-03-29T00:05:55;28.38;27.42;29.36;;
67306;Laerm;57661;51.436;5.978;2024-03-29T00:06:05;28.40;27.42;29.30;;
67306;Laerm;57661;51.436;5.978;2024-03-29T00:06:15;28.37;27.21;29.51;;
67306;Laerm;57661;51.436;5.978;2024-03-29T00:06:25;28.38;27.27;29.37;;
67306;Laerm;57661;51.436;5.978;2024-03-29T00:06:36;28.36;27.25;29.19;;
67306;Laerm;57661;51.436;5.978;2024-03-29T00:06:46;28.39;27.57;29.24;;
67306;Laerm;57661;51.436;5.978;2024-03-29T00:06:56;28.38;27.49;29.43;;
67306;Laerm;57661;51.436;5.978;2024-03-29T00:07:07;28.39;27.56;29.13;;
67306;Laerm;57661;51.436;5.978;2024-03-29T00:07:19;28.37;27.60;29.48;;
67306;Laerm;57661;51.436;5.978;2024-03-29T00:07:32;28.37;27.42;29.22;;
67306;Laerm;57661;51.436;5.978;2024-03-29T00:07:42;28.40;27.26;29.24;;
67306;Laerm;57661;51.436;5.978;2024-03-29T00:07:55;28.40;27.52;29.38;;
67306;Laerm;57661;51.436;5.978;2024-03-29T00:08:05;28.39;27.36;29.15;;
67306;Laerm;57661;51.436;5.978;2024-03-29T00:08:16;28.42;27.44;29.67;;
67306;Laerm;57661;51.436;5.978;2024-03-29T00:08:26;28.39;27.60;29.35;;
67306;Laerm;57661;51.436;5.978;2024-03-29T00:08:37;28.37;27.41;29.47;;
67306;Laerm;57661;51.436;5.978;2024-03-29T00:08:47;28.37;27.36;29.33;;
67306;Laerm;57661;51.436;5.978;2024-03-29T00:08:57;28.39;27.56;29.52;;
67306;Laerm;57661;51.436;5.978;2024-03-29T00:09:07;28.38;27.53;29.24;;
67306;Laerm;57661;51.436;5.978;2024-03-29T00:09:18;28.35;27.18;29.63;;
67306;Laerm;57661;51.436;5.978;2024-03-29T00:09:28;28.40;27.41;29.27;;
67306;Laerm;57661;51.436;5.978;2024-03-29T00:09:38;28.35;27.26;29.15;;
67306;Laerm;57661;51.436;5.978;2024-03-29T00:09:48;28.37;27.39;29.41;;
67306;Laerm;57661;51.436;5.978;2024-03-29T00:09:58;28.37;27.31;29.12;;
67306;Laerm;57661;51.436;5.978;2024-03-29T00:10:11;28.39;27.37;29.28;;
67306;Laerm;57661;51.436;5.978;2024-03-29T00:10:21;28.39;27.54;29.28;;
67306;Laerm;57661;51.436;5.978;2024-03-29T00:10:32;28.41;27.58;29.22;;
67306;Laerm;57661;51.436;5.978;2024-03-29T00:10:43;28.39;27.53;29.26;;
67306;Laerm;57661;51.436;5.978;2024-03-29T00:10:53;28.37;27.52;29.35;;
67306;Laerm;57661;51.436;5.978;2024-03-29T00:11:03;28.38;27.38;29.25;;
67306;Laerm;57661;51.436;5.978;2024-03-29T00:11:13;28.39;27.31;29.27;;
67306;Laerm;57661;51.436;5.978;2024-03-29T00:11:24;28.38;27.56;29.20;;
67306;Laerm;57661;51.436;5.978;2024-03-29T00:11:34;28.41;27.39;29.71;;
67306;Laerm;57661;51.436;5.978;2024-03-29T00:11:44;28.40;27.43;29.28;;
67306;Laerm;57661;51.436;5.978;2024-03-29T00:11:54;28.38;27.47;29.27;;
67306;Laerm;57661;51.436;5.978;2024-03-29T00:12:04;28.39;27.28;29.20;;
67306;Laerm;57661;51.436;5.978;2024-03-29T00:12:15;28.42;27.65;29.46;;
67306;Laerm;57661;51.436;5.978;2024-03-29T00:12:25;28.39;27.37;29.29;;
67306;Laerm;57661;51.436;5.978;2024-03-29T00:12:35;28.41;27.40;29.45;;
67306;Laerm;57661;51.436;5.978;2024-03-29T00:12:45;28.39;27.54;29.19;;
67306;Laerm;57661;51.436;5.978;2024-03-29T00:12:56;28.42;27.33;29.63;;
67306;Laerm;57661;51.436;5.978;2024-03-29T00:13:06;28.44;27.43;29.41;;
67306;Laerm;57661;51.436;5.978;2024-03-29T00:13:16;28.39;27.56;29.32;;
67306;Laerm;57661;51.436;5.978;2024-03-29T00:13:26;28.60;27.60;29.48;;
67306;Laerm;57661;51.436;5.978;2024-03-29T00:13:36;28.93;27.84;30.41;;
67306;Laerm;57661;51.436;5.978;2024-03-29T00:13:47;28.42;27.49;29.30;;
67306;Laerm;57661;51.436;5.978;2024-03-29T00:14:00;28.40;27.28;29.35;;
67306;Laerm;57661;51.436;5.978;2024-03-29T00:14:10;28.40;27.39;29.42;;
67306;Laerm;57661;51.436;5.978;2024-03-29T00:14:23;28.38;27.31;29.27;;
67306;Laerm;57661;51.436;5.978;2024-03-29T00:14:33;28.37;27.16;29.32;;
67306;Laerm;57661;51.436;5.978;2024-03-29T00:14:46;28.42;27.23;29.27;;
67306;Laerm;57661;51.436;5.978;2024-03-29T00:14:58;28.39;27.28;29.44;;
67306;Laerm;57661;51.436;5.978;2024-03-29T00:15:08;28.42;27.54;29.34;;
67306;Laerm;57661;51.436;5.978;2024-03-29T00:15:19;28.45;27.51;29.46;;
67306;Laerm;57661;51.436;5.978;2024-03-29T00:15:29;35.74;27.73;44.42;;
67306;Laerm;57661;51.436;5.978;2024-03-29T00:15:41;38.51;33.88;44.44;;
67306;Laerm;57661;51.436;5.978;2024-03-29T00:15:51;36.79;28.41;42.28;;
67306;Laerm;57661;51.436;5.978;2024-03-29T00:16:01;28.61;27.44;29.79;;
67306;Laerm;57661;51.436;5.978;2024-03-29T00:16:14;28.44;27.25;29.16;;
67306;Laerm;57661;51.436;5.978;2024-03-29T00:16:24;28.36;27.34;29.38;;
67306;Laerm;57661;51.436;5.978;2024-03-29T00:16:35;28.36;27.31;29.21;;
67306;Laerm;57661;51.436;5.978;2024-03-29T00:16:45;28.39;27.42;29.17;;
67306;Laerm;57661;51.436;5.978;2024-03-29T00:16:58;28.42;27.32;29.23;;
67306;Laerm;57661;51.436;5.978;2024-03-29T00:17:14;28.37;27.16;29.69;;
67306;Laerm;57661;51.436;5.978;2024-03-29T00:17:24;28.38;27.39;29.46;;
67306;Laerm;57661;51.436;5.978;2024-03-29T00:17:34;28.37;27.56;29.26;;
67306;Laerm;57661;51.436;5.978;2024-03-29T00:17:44;28.41;27.39;29.58;;
67306;Laerm;57661;51.436;5.978;2024-03-29T00:17:55;28.39;27.59;29.28;;
67306;Laerm;57661;51.436;5.978;2024-03-29T00:18:11;28.38;27.23;29.23;;
67306;Laerm;57661;51.436;5.978;2024-03-29T00:18:21;28.36;27.28;29.21;;
67306;Laerm;57661;51.436;5.978;2024-03-29T00:18:31;28.40;27.49;29.24;;
67306;Laerm;57661;51.436;5.978;2024-03-29T00:18:41;28.38;27.39;29.34;;
67306;Laerm;57661;51.436;5.978;2024-03-29T00:18:52;28.34;27.20;29.06;;
67306;Laerm;57661;51.436;5.978;2024-03-29T00:19:02;28.37;27.42;29.59;;
67306;Laerm;57661;51.436;5.978;2024-03-29T00:19:15;28.36;27.37;29.43;;
67306;Laerm;57661;51.436;5.978;2024-03-29T00:19:25;28.37;27.37;29.26;;
67306;Laerm;57661;51.436;5.978;2024-03-29T00:19:41;28.39;27.33;29.85;;
67306;Laerm;57661;51.436;5.978;2024-03-29T00:19:51;28.40;27.42;29.50;;
67306;Laerm;57661;51.436;5.978;2024-03-29T00:20:04;28.42;27.39;29.11;;
67306;Laerm;57661;51.436;5.978;2024-03-29T00:20:16;28.39;27.52;29.87;;
67306;Laerm;57661;51.436;5.978;2024-03-29T00:20:26;28.39;27.23;29.21;;
67306;Laerm;57661;51.436;5.978;2024-03-29T00:20:39;28.39;27.53;29.10;;
67306;Laerm;57661;51.436;5.978;2024-03-29T00:20:49;28.40;27.47;29.30;;
67306;Laerm;57661;51.436;5.978;2024-03-29T00:20:59;28.40;27.63;29.26;;
67306;Laerm;57661;51.436;5.978;2024-03-29T00:21:09;28.37;27.21;29.51;;
67306;Laerm;57661;51.436;5.978;2024-03-29T00:21:19;28.40;27.46;29.57;;
67306;Laerm;57661;51.436;5.978;2024-03-29T00:21:32;28.40;27.43;29.35;;
67306;Laerm;57661;51.436;5.978;2024-03-29T00:21:42;28.38;27.21;29.30;;
67306;Laerm;57661;51.436;5.978;2024-03-29T00:21:55;28.40;27.38;29.26;;
67306;Laerm;57661;51.436;5.978;2024-03-29T00:22:06;28.35;27.22;29.18;;
67306;Laerm;57661;51.436;5.978;2024-03-29T00:22:19;28.43;27.48;29.29;;
67306;Laerm;57661;51.436;5.978;2024-03-29T00:22:29;28.37;27.50;29.25;;
67306;Laerm;57661;51.436;5.978;2024-03-29T00:22:39;28.38;27.14;29.34;;
67306;Laerm;57661;51.436;5.978;2024-03-29T00:22:49;28.40;27.55;29.18;;
67306;Laerm;57661;51.436;5.978;2024-03-29T00:22:59;28.37;27.56;29.28;;
67306;Laerm;57661;51.436;5.978;2024-03-29T00:23:10;28.41;27.36;29.24;;
67306;Laerm;57661;51.436;5.978;2024-03-29T00:23:20;28.37;27.40;29.31;;
67306;Laerm;57661;51.436;5.978;2024-03-29T00:23:30;28.37;27.56;29.30;;
67306;Laerm;57661;51.436;5.978;2024-03-29T00:23:44;28.41;27.28;29.39;;
67306;Laerm;57661;51.436;5.978;2024-03-29T00:23:55;28.41;27.53;29.47;;
67306;Laerm;57661;51.436;5.978;2024-03-29T00:24:05;28.38;27.35;29.32;;
67306;Laerm;57661;51.436;5.978;2024-03-29T00:24:18;28.38;27.20;29.39;;
67306;Laerm;57661;51.436;5.978;2024-03-29T00:24:28;28.38;27.36;29.46;;
67306;Laerm;57661;51.436;5.978;2024-03-29T00:24:38;28.37;27.33;29.39;;
67306;Laerm;57661;51.436;5.978;2024-03-29T00:24:49;28.40;27.42;29.24;;
67306;Laerm;57661;51.436;5.978;2024-03-29T00:24:59;28.37;27.29;29.38;;
67306;Laerm;57661;51.436;5.978;2024-03-29T00:25:09;28.36;27.29;29.18;;
67306;Laerm;57661;51.436;5.978;2024-03-29T00:25:19;28.33;27.39;29.42;;
67306;Laerm;57661;51.436;5.978;2024-03-29T00:25:30;28.40;27.18;29.30;;
67306;Laerm;57661;51.436;5.978;2024-03-29T00:25:40;28.40;27.41;29.24;;
67306;Laerm;57661;51.436;5.978;2024-03-29T00:25:50;28.35;27.31;29.34;;
67306;Laerm;57661;51.436;5.978;2024-03-29T00:26:01;28.37;27.50;29.27;;
67306;Laerm;57661;51.436;5.978;2024-03-29T00:26:11;28.39;27.50;29.28;;
67306;Laerm;57661;51.436;5.978;2024-03-29T00:26:21;28.39;27.41;29.42;;
67306;Laerm;57661;51.436;5.978;2024-03-29T00:26:32;28.40;27.43;29.41;;
67306;Laerm;57661;51.436;5.978;2024-03-29T00:26:45;28.38;27.46;29.60;;
67306;Laerm;57661;51.436;5.978;2024-03-29T00:26:58;28.40;27.45;29.36;;
67306;Laerm;57661;51.436;5.978;2024-03-29T00:27:08;28.38;27.42;29.36;;
67306;Laerm;57661;51.436;5.978;2024-03-29T00:27:18;28.36;27.21;29.40;;
67306;Laerm;57661;51.436;5.978;2024-03-29T00:27:29;28.38;27.47;29.30;;
67306;Laerm;57661;51.436;5.978;2024-03-29T00:27:43;28.39;27.40;29.11;;
67306;Laerm;57661;51.436;5.978;2024-03-29T00:27:54;28.39;27.12;29.31;;
67306;Laerm;57661;51.436;5.978;2024-03-29T00:28:05;28.39;27.40;29.31;;
67306;Laerm;57661;51.436;5.978;2024-03-29T00:28:15;28.40;27.58;29.30;;
67306;Laerm;57661;51.436;5.978;2024-03-29T00:28:28;28.38;27.46;29.19;;
67306;Laerm;57661;51.436;5.978;2024-03-29T00:28:39;28.39;27.47;29.13;;
67306;Laerm;57661;51.436;5.978;2024-03-29T00:28:49;28.41;27.47;29.25;;
67306;Laerm;57661;51.436;5.978;2024-03-29T00:28:59;28.41;27.53;29.38;;
67306;Laerm;57661;51.436;5.978;2024-03-29T00:29:09;28.41;27.51;29.51;;
67306;Laerm;57661;51.436;5.978;2024-03-29T00:29:25;28.41;27.39;29.44;;
67306;Laerm;57661;51.436;5.978;2024-03-29T00:29:58;28.43;27.33;29.51;;
67306;Laerm;57661;51.436;5.978;2024-03-29T00:30:07;28.37;27.21;29.35;;
67306;Laerm;57661;51.436;5.978;2024-03-29T00:30:17;28.41;27.08;29.24;;
67306;Laerm;57661;51.436;5.978;2024-03-29T00:30:28;28.36;27.30;29.24;;
67306;Laerm;57661;51.436;5.978;2024-03-29T00:30:38;28.39;27.39;29.33;;
67306;Laerm;57661;51.436;5.978;2024-03-29T00:30:51;28.36;27.31;29.19;;
67306;Laerm;57661;51.436;5.978;2024-03-29T00:31:01;28.41;27.44;29.26;;
67306;Laerm;57661;51.436;5.978;2024-03-29T00:31:11;29.04;27.38;37.18;;
67306;Laerm;57661;51.436;5.978;2024-03-29T00:31:22;28.43;27.58;30.09;;
67306;Laerm;57661;51.436;5.978;2024-03-29T00:31:32;28.39;27.42;29.10;;
67306;Laerm;57661;51.436;5.978;2024-03-29T00:31:42;28.37;27.37;29.40;;
67306;Laerm;57661;51.436;5.978;2024-03-29T00:31:52;28.39;27.41;29.40;;
67306;Laerm;57661;51.436;5.978;2024-03-29T00:32:05;28.41;27.43;29.51;;
67306;Laerm;57661;51.436;5.978;2024-03-29T00:32:16;28.41;27.40;29.30;;
67306;Laerm;57661;51.436;5.978;2024-03-29T00:32:26;28.41;27.50;29.23;;
67306;Laerm;57661;51.436;5.978;2024-03-29T00:32:36;28.40;27.60;29.32;;
67306;Laerm;57661;51.436;5.978;2024-03-29T00:32:49;28.41;27.31;29.38;;
67306;Laerm;57661;51.436;5.978;2024-03-29T00:32:59;28.43;27.58;29.23;;
67306;Laerm;57661;51.436;5.978;2024-03-29T00:33:09;28.39;27.72;29.54;;
67306;Laerm;57661;51.436;5.978;2024-03-29T00:33:22;28.38;27.43;29.36;;
67306;Laerm;57661;51.436;5.978;2024-03-29T00:33:35;28.38;27.40;29.05;;
67306;Laerm;57661;51.436;5.978;2024-03-29T00:33:45;28.39;27.12;29.17;;
67306;Laerm;57661;51.436;5.978;2024-03-29T00:33:56;28.36;27.33;29.26;;
67306;Laerm;57661;51.436;5.978;2024-03-29T00:34:06;28.39;27.40;29.33;;
67306;Laerm;57661;51.436;5.978;2024-03-29T00:34:16;28.39;27.56;29.34;;
67306;Laerm;57661;51.436;5.978;2024-03-29T00:34:26;28.43;27.34;29.28;;
67306;Laerm;57661;51.436;5.978;2024-03-29T00:34:36;28.41;27.51;29.25;;
67306;Laerm;57661;51.436;5.978;2024-03-29T00:34:49;28.38;27.03;29.38;;
67306;Laerm;57661;51.436;5.978;2024-03-29T00:34:59;28.39;27.47;29.49;;
67306;Laerm;57661;51.436;5.978;2024-03-29T00:35:09;28.45;27.48;29.22;;
67306;Laerm;57661;51.436;5.978;2024-03-29T00:35:20;29.11;27.54;43.21;;
67306;Laerm;57661;51.436;5.978;2024-03-29T00:35:30;28.39;27.58;29.37;;
67306;Laerm;57661;51.436;5.978;2024-03-29T00:35:41;28.39;27.37;29.13;;
67306;Laerm;57661;51.436;5.978;2024-03-29T00:35:51;28.40;27.32;29.24;;
67306;Laerm;57661;51.436;5.978;2024-03-29T00:36:07;28.38;27.52;29.22;;
67306;Laerm;57661;51.436;5.978;2024-03-29T00:36:17;28.41;27.44;29.47;;
67306;Laerm;57661;51.436;5.978;2024-03-29T00:36:30;28.41;27.49;29.37;;
67306;Laerm;57661;51.436;5.978;2024-03-29T00:36:41;28.38;27.27;29.38;;
67306;Laerm;57661;51.436;5.978;2024-03-29T00:36:51;29.08;27.48;43.07;;
67306;Laerm;57661;51.436;5.978;2024-03-29T00:37:02;28.49;27.44;30.15;;
67306;Laerm;57661;51.436;5.978;2024-03-29T00:37:14;28.39;27.55;29.25;;
67306;Laerm;57661;51.436;5.978;2024-03-29T00:37:24;28.43;27.60;29.50;;
67306;Laerm;57661;51.436;5.978;2024-03-29T00:37:34;28.45;27.19;29.42;;
67306;Laerm;57661;51.436;5.978;2024-03-29T00:37:44;28.42;27.35;29.53;;
67306;Laerm;57661;51.436;5.978;2024-03-29T00:37:54;28.42;27.50;29.27;;
67306;Laerm;57661;51.436;5.978;2024-03-29T00:38:04;28.38;27.44;29.45;;
67306;Laerm;57661;51.436;5.978;2024-03-29T00:38:15;28.41;27.60;29.31;;
67306;Laerm;57661;51.436;5.978;2024-03-29T00:38:25;28.39;27.47;29.31;;
67306;Laerm;57661;51.436;5.978;2024-03-29T00:38:35;28.40;27.29;29.35;;
67306;Laerm;57661;51.436;5.978;2024-03-29T00:38:45;28.41;27.40;29.54;;
67306;Laerm;57661;51.436;5.978;2024-03-29T00:38:55;28.40;27.51;29.24;;
67306;Laerm;57661;51.436;5.978;2024-03-29T00:39:06;28.38;27.16;29.43;;
67306;Laerm;57661;51.436;5.978;2024-03-29T00:39:21;28.44;27.34;29.24;;
67306;Laerm;57661;51.436;5.978;2024-03-29T00:39:31;28.38;27.29;29.27;;
67306;Laerm;57661;51.436;5.978;2024-03-29T00:39:41;28.37;27.43;29.28;;
67306;Laerm;57661;51.436;5.978;2024-03-29T00:39:52;28.38;27.55;29.23;;
67306;Laerm;57661;51.436;5.978;2024-03-29T00:40:02;28.38;27.39;29.26;;
67306;Laerm;57661;51.436;5.978;2024-03-29T00:40:12;28.38;27.56;29.33;;
67306;Laerm;57661;51.436;5.978;2024-03-29T00:40:23;28.41;27.55;29.24;;
67306;Laerm;57661;51.436;5.978;2024-03-29T00:40:33;28.37;27.42;29.47;;
67306;Laerm;57661;51.436;5.978;2024-03-29T00:40:45;28.38;27.55;29.16;;
67306;Laerm;57661;51.436;5.978;2024-03-29T00:40:55;28.39;27.35;29.44;;
67306;Laerm;57661;51.436;5.978;2024-03-29T00:41:08;28.43;27.63;29.84;;
67306;Laerm;57661;51.436;5.978;2024-03-29T00:41:21;28.41;27.43;29.75;;
67306;Laerm;57661;51.436;5.978;2024-03-29T00:41:41;28.42;27.45;29.39;;
67306;Laerm;57661;51.436;5.978;2024-03-29T00:41:51;28.39;27.49;29.27;;
67306;Laerm;57661;51.436;5.978;2024-03-29T00:42:01;28.39;27.32;29.29;;
67306;Laerm;57661;51.436;5.978;2024-03-29T00:42:11;28.39;27.59;29.19;;
67306;Laerm;57661;51.436;5.978;2024-03-29T00:42:29;28.40;27.56;29.26;;
67306;Laerm;57661;51.436;5.978;2024-03-29T00:42:39;28.43;27.44;29.28;;
67306;Laerm;57661;51.436;5.978;2024-03-29T00:42:49;28.55;27.51;29.95;;
67306;Laerm;57661;51.436;5.978;2024-03-29T00:43:00;28.39;27.30;29.23;;
67306;Laerm;57661;51.436;5.978;2024-03-29T00:43:10;28.38;27.56;29.23;;
67306;Laerm;57661;51.436;5.978;2024-03-29T00:43:20;28.39;27.55;29.54;;
67306;Laerm;57661;51.436;5.978;2024-03-29T00:43:30;28.37;27.29;29.17;;
67306;Laerm;57661;51.436;5.978;2024-03-29T00:43:41;28.39;27.52;29.28;;
67306;Laerm;57661;51.436;5.978;2024-03-29T00:43:51;28.39;27.52;29.18;;
67306;Laerm;57661;51.436;5.978;2024-03-29T00:44:04;28.42;27.42;29.54;;
67306;Laerm;57661;51.436;5.978;2024-03-29T00:44:14;28.42;27.30;29.28;;
67306;Laerm;57661;51.436;5.978;2024-03-29T00:44:24;28.42;27.49;29.52;;
67306;Laerm;57661;51.436;5.978;2024-03-29T00:44:34;28.40;27.55;29.28;;
67306;Laerm;57661;51.436;5.978;2024-03-29T00:44:48;35.43;27.56;46.12;;
67306;Laerm;57661;51.436;5.978;2024-03-29T00:44:58;36.66;32.78;43.23;;
67306;Laerm;57661;51.436;5.978;2024-03-29T00:45:08;36.22;32.52;40.42;;
67306;Laerm;57661;51.436;5.978;2024-03-29T00:45:18;29.60;27.60;35.75;;
67306;Laerm;57661;51.436;5.978;2024-03-29T00:45:29;28.43;27.51;29.61;;
67306;Laerm;57661;51.436;5.978;2024-03-29T00:45:39;28.43;27.49;29.20;;
67306;Laerm;57661;51.436;5.978;2024-03-29T00:45:50;28.39;27.53;29.74;;
67306;Laerm;57661;51.436;5.978;2024-03-29T00:46:00;28.41;27.43;29.27;;
67306;Laerm;57661;51.436;5.978;2024-03-29T00:46:10;28.41;27.47;29.38;;
67306;Laerm;57661;51.436;5.978;2024-03-29T00:46:20;28.40;27.51;29.34;;
67306;Laerm;57661;51.436;5.978;2024-03-29T00:46:32;28.37;27.36;29.31;;
67306;Laerm;57661;51.436;5.978;2024-03-29T00:46:42;28.41;27.22;29.41;;
67306;Laerm;57661;51.436;5.978;2024-03-29T00:46:52;28.42;27.43;29.45;;
67306;Laerm;57661;51.436;5.978;2024-03-29T00:47:02;28.43;27.49;29.11;;
67306;Laerm;57661;51.436;5.978;2024-03-29T00:47:12;28.41;27.47;29.65;;
67306;Laerm;57661;51.436;5.978;2024-03-29T00:47:23;28.41;27.50;29.15;;
67306;Laerm;57661;51.436;5.978;2024-03-29T00:47:33;28.43;27.16;29.35;;
67306;Laerm;57661;51.436;5.978;2024-03-29T00:47:44;28.40;27.54;29.35;;
67306;Laerm;57661;51.436;5.978;2024-03-29T00:47:54;28.36;27.43;29.29;;
67306;Laerm;57661;51.436;5.978;2024-03-29T00:48:04;28.39;27.41;29.18;;
67306;Laerm;57661;51.436;5.978;2024-03-29T00:48:14;28.44;27.39;29.38;;
67306;Laerm;57661;51.436;5.978;2024-03-29T00:48:27;28.49;27.34;29.44;;
67306;Laerm;57661;51.436;5.978;2024-03-29T00:48:37;28.44;27.41;29.50;;
67306;Laerm;57661;51.436;5.978;2024-03-29T00:48:47;28.36;27.43;29.41;;
67306;Laerm;57661;51.436;5.978;2024-03-29T00:48:58;28.38;26.87;29.25;;
67306;Laerm;57661;51.436;5.978;2024-03-29T00:49:08;28.42;27.59;29.46;;
67306;Laerm;57661;51.436;5.978;2024-03-29T00:49:18;28.38;27.48;29.34;;
67306;Laerm;57661;51.436;5.978;2024-03-29T00:49:29;28.40;27.56;29.30;;
67306;Laerm;57661;51.436;5.978;2024-03-29T00:49:39;28.42;27.41;29.26;;
67306;Laerm;57661;51.436;5.978;2024-03-29T00:49:50;28.40;27.59;29.27;;
67306;Laerm;57661;51.436;5.978;2024-03-29T00:50:00;28.42;27.42;29.11;;
67306;Laerm;57661;51.436;5.978;2024-03-29T00:50:10;28.39;27.49;29.26;;
67306;Laerm;57661;51.436;5.978;2024-03-29T00:50:23;28.40;27.30;29.37;;
67306;Laerm;57661;51.436;5.978;2024-03-29T00:50:33;28.42;27.38;29.25;;
67306;Laerm;57661;51.436;5.978;2024-03-29T00:50:44;28.40;27.38;29.35;;
67306;Laerm;57661;51.436;5.978;2024-03-29T00:50:54;28.40;27.53;29.45;;
67306;Laerm;57661;51.436;5.978;2024-03-29T00:51:05;28.36;27.37;29.51;;
67306;Laerm;57661;51.436;5.978;2024-03-29T00:51:15;28.40;27.30;29.34;;
67306;Laerm;57661;51.436;5.978;2024-03-29T00:51:25;28.44;27.28;29.15;;
67306;Laerm;57661;51.436;5.978;2024-03-29T00:51:35;28.43;27.58;29.51;;
67306;Laerm;57661;51.436;5.978;2024-03-29T00:51:46;28.41;27.45;29.42;;
67306;Laerm;57661;51.436;5.978;2024-03-29T00:52:03;28.41;27.42;29.48;;
67306;Laerm;57661;51.436;5.978;2024-03-29T00:52:13;33.51;27.52;44.52;;
67306;Laerm;57661;51.436;5.978;2024-03-29T00:52:26;38.50;33.50;46.36;;
67306;Laerm;57661;51.436;5.978;2024-03-29T00:52:39;36.13;28.24;43.12;;
67306;Laerm;57661;51.436;5.978;2024-03-29T00:52:49;28.60;27.42;29.93;;
67306;Laerm;57661;51.436;5.978;2024-03-29T00:53:00;28.43;27.47;29.44;;
67306;Laerm;57661;51.436;5.978;2024-03-29T00:53:10;28.44;27.30;29.57;;
67306;Laerm;57661;51.436;5.978;2024-03-29T00:53:20;28.44;27.43;29.24;;
67306;Laerm;57661;51.436;5.978;2024-03-29T00:53:30;28.38;27.52;29.36;;
67306;Laerm;57661;51.436;5.978;2024-03-29T00:53:43;28.42;27.58;29.22;;
67306;Laerm;57661;51.436;5.978;2024-03-29T00:53:56;28.46;27.50;29.50;;
67306;Laerm;57661;51.436;5.978;2024-03-29T00:54:06;28.42;27.45;29.41;;
67306;Laerm;57661;51.436;5.978;2024-03-29T00:54:17;28.47;27.45;29.27;;
67306;Laerm;57661;51.436;5.978;2024-03-29T00:54:29;28.40;27.08;29.59;;
67306;Laerm;57661;51.436;5.978;2024-03-29T00:54:39;28.39;27.41;29.23;;
67306;Laerm;57661;51.436;5.978;2024-03-29T00:54:49;28.42;27.50;29.24;;
67306;Laerm;57661;51.436;5.978;2024-03-29T00:55:00;28.42;27.45;29.67;;
67306;Laerm;57661;51.436;5.978;2024-03-29T00:55:10;28.39;27.37;29.63;;
67306;Laerm;57661;51.436;5.978;2024-03-29T00:55:20;28.40;27.52;29.62;;
67306;Laerm;57661;51.436;5.978;2024-03-29T00:55:31;28.47;27.38;29.42;;
67306;Laerm;57661;51.436;5.978;2024-03-29T00:55:41;28.42;27.38;29.41;;
67306;Laerm;57661;51.436;5.978;2024-03-29T00:55:54;31.81;27.17;52.34;;
67306;Laerm;57661;51.436;5.978;2024-03-29T00:56:04;28.45;27.43;29.69;;
67306;Laerm;57661;51.436;5.978;2024-03-29T00:56:15;28.56;27.60;30.40;;
67306;Laerm;57661;51.436;5.978;2024-03-29T00:56:25;28.42;27.33;29.21;;
67306;Laerm;57661;51.436;5.978;2024-03-29T00:56:35;28.40;27.42;29.16;;
67306;Laerm;57661;51.436;5.978;2024-03-29T00:56:45;28.37;27.54;29.25;;
67306;Laerm;57661;51.436;5.978;2024-03-29T00:56:55;28.41;27.47;29.37;;
67306;Laerm;57661;51.436;5.978;2024-03-29T00:57:06;28.41;27.61;29.26;;
67306;Laerm;57661;51.436;5.978;2024-03-29T00:57:22;28.41;27.40;29.49;;
67306;Laerm;57661;51.436;5.978;2024-03-29T00:57:32;28.39;27.47;29.52;;
67306;Laerm;57661;51.436;5.978;2024-03-29T00:57:42;28.87;27.54;40.48;;
67306;Laerm;57661;51.436;5.978;2024-03-29T00:57:53;28.60;27.61;36.81;;
67306;Laerm;57661;51.436;5.978;2024-03-29T00:58:03;28.75;27.65;30.44;;
67306;Laerm;57661;51.436;5.978;2024-03-29T00:58:13;28.97;27.54;32.06;;
67306;Laerm;57661;51.436;5.978;2024-03-29T00:58:23;28.42;27.21;29.42;;
67306;Laerm;57661;51.436;5.978;2024-03-29T00:58:33;28.40;27.49;29.17;;
67306;Laerm;57661;51.436;5.978;2024-03-29T00:58:44;28.39;27.58;29.30;;
67306;Laerm;57661;51.436;5.978;2024-03-29T00:58:54;28.45;27.53;29.39;;
67306;Laerm;57661;51.436;5.978;2024-03-29T00:59:04;28.40;27.44;29.28;;
67306;Laerm;57661;51.436;5.978;2024-03-29T00:59:14;28.41;27.33;29.37;;
67306;Laerm;57661;51.436;5.978;2024-03-29T00:59:24;28.39;27.42;29.24;;
67306;Laerm;57661;51.436;5.978;2024-03-29T00:59:35;28.41;27.33;29.30;;
67306;Laerm;57661;51.436;5.978;2024-03-29T00:59:45;28.36;27.30;29.35;;
67306;Laerm;57661;51.436;5.978;2024-03-29T00:59:56;28.37;27.35;29.24;;
67306;Laerm;57661;51.436;5.978;2024-03-29T01:00:07;28.60;27.48;34.99;;
67306;Laerm;57661;51.436;5.978;2024-03-29T01:00:20;28.90;27.48;38.38;;
67306;Laerm;57661;51.436;5.978;2024-03-29T01:00:30;28.38;27.35;29.51;;
67306;Laerm;57661;51.436;5.978;2024-03-29T01:00:40;28.41;27.31;29.52;;
67306;Laerm;57661;51.436;5.978;2024-03-29T01:00:50;28.38;27.57;29.33;;
67306;Laerm;57661;51.436;5.978;2024-03-29T01:01:01;28.50;27.64;29.76;;